sensor_id;sensor_type;location;lat;lon;timestamp;pressure;altitude;pressure_sealevel;temperature;humidity
62237;BME280;69163;48.778;2.308;2023-10-09T00:01:23;101570.60;;;18.35;47.28
62237;BME280;69163;48.778;2.308;2023-10-09T00:03:49;101570.87;;;18.54;47.32
62237;BME280;69163;48.778;2.308;2023-10-09T00:06:14;101567.54;;;18.57;47.21
62237;BME280;69163;48.778;2.308;2023-10-09T00:08:41;101565.76;;;18.01;47.27
62237;BME280;69163;48.778;2.308;2023-10-09T00:11:05;101564.18;;;18.23;47.30
62237;BME280;69163;48.778;2.308;2023-10-09T00:13:30;101563.09;;;18.48;47.22
62237;BME280;69163;48.778;2.308;2023-10-09T00:15:56;101569.16;;;18.57;47.12
62237;BME280;69163;48.778;2.308;2023-10-09T00:18:20;101569.20;;;18.19;46.92
62237;BME280;69163;48.778;2.308;2023-10-09T00:20:46;101573.21;;;18.22;46.86
62237;BME280;69163;48.778;2.308;2023-10-09T00:23:11;101573.52;;;18.24;46.90
62237;BME280;69163;48.778;2.308;2023-10-09T00:25:36;101572.04;;;18.28;46.86
62237;BME280;69163;48.778;2.308;2023-10-09T00:28:01;101568.97;;;18.27;46.93
62237;BME280;69163;48.778;2.308;2023-10-09T00:30:26;101569.08;;;18.75;46.98
62237;BME280;69163;48.778;2.308;2023-10-09T00:32:51;101563.84;;;18.79;46.95
62237;BME280;69163;48.778;2.308;2023-10-09T00:35:17;101568.13;;;18.50;46.94
62237;BME280;69163;48.778;2.308;2023-10-09T00:37:42;101573.67;;;18.32;46.84
62237;BME280;69163;48.778;2.308;2023-10-09T00:40:08;101573.45;;;18.84;46.78
62237;BME280;69163;48.778;2.308;2023-10-09T00:42:33;101564.31;;;18.79;46.80
62237;BME280;69163;48.778;2.308;2023-10-09T00:44:58;101559.71;;;18.65;46.65
62237;BME280;69163;48.778;2.308;2023-10-09T00:47:23;101558.50;;;18.63;46.70
62237;BME280;69163;48.778;2.308;2023-10-09T00:49:50;101557.13;;;18.34;46.67
62237;BME280;69163;48.778;2.308;2023-10-09T00:52:12;101563.81;;;18.38;46.59
62237;BME280;69163;48.778;2.308;2023-10-09T00:54:39;101563.10;;;18.60;46.57
62237;BME280;69163;48.778;2.308;2023-10-09T00:57:04;101556.63;;;18.80;46.62
62237;BME280;69163;48.778;2.308;2023-10-09T00:59:29;101556.24;;;18.63;46.48
62237;BME280;69163;48.778;2.308;2023-10-09T01:01:54;101553.72;;;18.40;46.43
62237;BME280;69163;48.778;2.308;2023-10-09T01:04:19;101548.29;;;18.92;46.31
62237;BME280;69163;48.778;2.308;2023-10-09T01:06:46;101545.20;;;18.74;46.22
62237;BME280;69163;48.778;2.308;2023-10-09T01:09:11;101537.55;;;18.83;46.02
62237;BME280;69163;48.778;2.308;2023-10-09T01:11:37;101529.93;;;18.60;45.96
62237;BME280;69163;48.778;2.308;2023-10-09T01:14:00;101525.76;;;18.67;45.84
62237;BME280;69163;48.778;2.308;2023-10-09T01:16:26;101519.51;;;18.73;45.70
62237;BME280;69163;48.778;2.308;2023-10-09T01:18:52;101522.28;;;19.27;45.61
62237;BME280;69163;48.778;2.308;2023-10-09T01:21:17;101520.55;;;18.74;45.60
62237;BME280;69163;48.778;2.308;2023-10-09T01:23:42;101517.38;;;18.72;45.64
62237;BME280;69163;48.778;2.308;2023-10-09T01:26:06;101514.04;;;18.98;45.60
62237;BME280;69163;48.778;2.308;2023-10-09T01:28:33;101504.65;;;19.00;45.54
62237;BME280;69163;48.778;2.308;2023-10-09T01:30:57;101498.48;;;19.00;45.52
62237;BME280;69163;48.778;2.308;2023-10-09T01:33:22;101499.75;;;19.25;45.48
62237;BME280;69163;48.778;2.308;2023-10-09T01:35:49;101501.06;;;18.76;45.45
62237;BME280;69163;48.778;2.308;2023-10-09T01:38:14;101503.05;;;18.74;45.44
62237;BME280;69163;48.778;2.308;2023-10-09T01:40:39;101502.89;;;18.77;45.44
62237;BME280;69163;48.778;2.308;2023-10-09T01:43:05;101500.56;;;18.82;45.37
62237;BME280;69163;48.778;2.308;2023-10-09T01:45:30;101494.57;;;19.06;45.33
62237;BME280;69163;48.778;2.308;2023-10-09T01:47:55;101495.63;;;18.68;45.86
62237;BME280;69163;48.778;2.308;2023-10-09T01:50:21;101496.45;;;19.16;47.25
62237;BME280;69163;48.778;2.308;2023-10-09T01:52:47;101497.42;;;18.78;47.30
62237;BME280;69163;48.778;2.308;2023-10-09T01:55:12;101493.25;;;19.26;47.41
62237;BME280;69163;48.778;2.308;2023-10-09T01:57:38;101490.93;;;18.77;47.66
62237;BME280;69163;48.778;2.308;2023-10-09T02:00:03;101487.47;;;18.99;47.80
62237;BME280;69163;48.778;2.308;2023-10-09T02:02:28;101483.83;;;18.77;47.73
62237;BME280;69163;48.778;2.308;2023-10-09T02:04:56;101480.79;;;18.99;47.85
62237;BME280;69163;48.778;2.308;2023-10-09T02:07:20;101482.90;;;18.73;47.93
62237;BME280;69163;48.778;2.308;2023-10-09T02:09:45;101479.75;;;18.94;47.96
62237;BME280;69163;48.778;2.308;2023-10-09T02:12:09;101479.44;;;18.74;47.97
62237;BME280;69163;48.778;2.308;2023-10-09T02:14:36;101477.18;;;18.74;47.94
62237;BME280;69163;48.778;2.308;2023-10-09T02:17:01;101474.47;;;19.27;47.78
62237;BME280;69163;48.778;2.308;2023-10-09T02:19:26;101475.78;;;19.05;47.67
62237;BME280;69163;48.778;2.308;2023-10-09T02:21:52;101477.49;;;18.82;47.61
62237;BME280;69163;48.778;2.308;2023-10-09T02:24:17;101476.10;;;18.81;47.60
62237;BME280;69163;48.778;2.308;2023-10-09T02:26:42;101475.08;;;18.77;47.66
62237;BME280;69163;48.778;2.308;2023-10-09T02:29:07;101475.28;;;19.04;47.62
62237;BME280;69163;48.778;2.308;2023-10-09T02:31:33;101473.13;;;19.02;47.57
62237;BME280;69163;48.778;2.308;2023-10-09T02:33:58;101476.36;;;19.26;47.56
62237;BME280;69163;48.778;2.308;2023-10-09T02:36:23;101471.52;;;18.79;47.43
62237;BME280;69163;48.778;2.308;2023-10-09T02:38:48;101469.65;;;19.28;47.40
62237;BME280;69163;48.778;2.308;2023-10-09T02:41:13;101468.32;;;19.05;47.27
62237;BME280;69163;48.778;2.308;2023-10-09T02:43:39;101469.23;;;18.97;47.28
62237;BME280;69163;48.778;2.308;2023-10-09T02:46:04;101469.08;;;19.17;47.27
62237;BME280;69163;48.778;2.308;2023-10-09T02:48:29;101464.71;;;18.65;47.28
62237;BME280;69163;48.778;2.308;2023-10-09T02:50:55;101461.45;;;18.64;47.28
62237;BME280;69163;48.778;2.308;2023-10-09T02:53:20;101463.81;;;18.81;47.38
62237;BME280;69163;48.778;2.308;2023-10-09T02:55:45;101464.18;;;19.03;47.47
62237;BME280;69163;48.778;2.308;2023-10-09T02:58:10;101463.27;;;18.73;47.43
62237;BME280;69163;48.778;2.308;2023-10-09T03:00:37;101459.54;;;18.54;47.39
62237;BME280;69163;48.778;2.308;2023-10-09T03:03:03;101454.51;;;19.08;47.20
62237;BME280;69163;48.778;2.308;2023-10-09T03:05:26;101450.16;;;19.05;47.19
62237;BME280;69163;48.778;2.308;2023-10-09T03:07:51;101448.89;;;18.73;47.24
62237;BME280;69163;48.778;2.308;2023-10-09T03:10:17;101450.74;;;18.64;47.31
62237;BME280;69163;48.778;2.308;2023-10-09T03:12:42;101451.77;;;18.38;47.45
62237;BME280;69163;48.778;2.308;2023-10-09T03:15:08;101452.86;;;18.82;47.41
62237;BME280;69163;48.778;2.308;2023-10-09T03:17:33;101455.29;;;18.55;47.41
62237;BME280;69163;48.778;2.308;2023-10-09T03:19:57;101460.76;;;18.55;47.37
62237;BME280;69163;48.778;2.308;2023-10-09T03:22:23;101467.59;;;18.26;47.42
62237;BME280;69163;48.778;2.308;2023-10-09T03:24:48;101468.12;;;18.74;47.34
62237;BME280;69163;48.778;2.308;2023-10-09T03:27:13;101469.42;;;18.52;47.31
62237;BME280;69163;48.778;2.308;2023-10-09T03:29:39;101470.54;;;18.46;47.35
62237;BME280;69163;48.778;2.308;2023-10-09T03:32:04;101475.37;;;18.66;47.40
62237;BME280;69163;48.778;2.308;2023-10-09T03:34:29;101471.37;;;18.61;47.43
62237;BME280;69163;48.778;2.308;2023-10-09T03:36:54;101467.54;;;18.21;47.63
62237;BME280;69163;48.778;2.308;2023-10-09T03:39:20;101467.58;;;18.48;47.55
62237;BME280;69163;48.778;2.308;2023-10-09T03:41:44;101467.10;;;18.24;47.56
62237;BME280;69163;48.778;2.308;2023-10-09T03:44:10;101463.16;;;18.47;47.53
62237;BME280;69163;48.778;2.308;2023-10-09T03:46:36;101463.56;;;18.45;47.48
62237;BME280;69163;48.778;2.308;2023-10-09T03:49:01;101470.11;;;18.20;47.51
62237;BME280;69163;48.778;2.308;2023-10-09T03:51:26;101469.25;;;18.43;47.46
62237;BME280;69163;48.778;2.308;2023-10-09T03:53:52;101473.57;;;18.41;47.45
62237;BME280;69163;48.778;2.308;2023-10-09T03:56:16;101472.33;;;18.40;47.44
62237;BME280;69163;48.778;2.308;2023-10-09T03:58:43;101467.88;;;18.15;47.46
62237;BME280;69163;48.778;2.308;2023-10-09T04:01:10;101471.10;;;18.03;47.60
62237;BME280;69163;48.778;2.308;2023-10-09T04:03:33;101470.98;;;18.07;47.52
62237;BME280;69163;48.778;2.308;2023-10-09T04:05:57;101472.06;;;18.30;47.48
62237;BME280;69163;48.778;2.308;2023-10-09T04:08:23;101472.02;;;18.62;47.35
62237;BME280;69163;48.778;2.308;2023-10-09T04:10:47;101470.15;;;18.30;47.39
62237;BME280;69163;48.778;2.308;2023-10-09T04:13:13;101471.94;;;18.29;47.40
62237;BME280;69163;48.778;2.308;2023-10-09T04:15:39;101476.78;;;18.31;47.29
62237;BME280;69163;48.778;2.308;2023-10-09T04:18:04;101475.15;;;18.30;47.27
62237;BME280;69163;48.778;2.308;2023-10-09T04:20:29;101476.92;;;18.53;47.29
62237;BME280;69163;48.778;2.308;2023-10-09T04:22:55;101476.35;;;18.03;47.32
62237;BME280;69163;48.778;2.308;2023-10-09T04:25:20;101479.04;;;18.23;47.33
62237;BME280;69163;48.778;2.308;2023-10-09T04:27:45;101479.70;;;18.05;47.22
62237;BME280;69163;48.778;2.308;2023-10-09T04:30:11;101478.15;;;18.30;47.15
62237;BME280;69163;48.778;2.308;2023-10-09T04:32:36;101477.78;;;18.33;47.08
62237;BME280;69163;48.778;2.308;2023-10-09T04:35:00;101479.79;;;18.29;47.06
62237;BME280;69163;48.778;2.308;2023-10-09T04:37:25;101477.91;;;18.20;47.08
62237;BME280;69163;48.778;2.308;2023-10-09T04:39:51;101478.93;;;18.27;47.00
62237;BME280;69163;48.778;2.308;2023-10-09T04:42:16;101480.71;;;18.19;47.00
62237;BME280;69163;48.778;2.308;2023-10-09T04:44:42;101477.79;;;18.24;46.98
62237;BME280;69163;48.778;2.308;2023-10-09T04:47:07;101475.64;;;18.20;47.06
62237;BME280;69163;48.778;2.308;2023-10-09T04:49:33;101473.60;;;18.24;46.92
62237;BME280;69163;48.778;2.308;2023-10-09T04:51:57;101472.11;;;18.30;46.80
62237;BME280;69163;48.778;2.308;2023-10-09T04:54:22;101470.43;;;18.24;46.84
62237;BME280;69163;48.778;2.308;2023-10-09T04:56:48;101472.27;;;18.23;46.79
62237;BME280;69163;48.778;2.308;2023-10-09T04:59:13;101471.61;;;18.20;46.84
62237;BME280;69163;48.778;2.308;2023-10-09T05:01:40;101467.20;;;17.75;46.71
62237;BME280;69163;48.778;2.308;2023-10-09T05:04:04;101468.63;;;18.18;46.74
62237;BME280;69163;48.778;2.308;2023-10-09T05:06:29;101474.16;;;18.46;46.70
62237;BME280;69163;48.778;2.308;2023-10-09T05:08:55;101475.47;;;18.14;46.82
62237;BME280;69163;48.778;2.308;2023-10-09T05:11:22;101475.84;;;18.38;46.78
62237;BME280;69163;48.778;2.308;2023-10-09T05:13:44;101478.82;;;18.36;46.79
62237;BME280;69163;48.778;2.308;2023-10-09T05:16:11;101482.15;;;18.03;46.87
62237;BME280;69163;48.778;2.308;2023-10-09T05:18:36;101482.07;;;18.09;46.78
62237;BME280;69163;48.778;2.308;2023-10-09T05:21:00;101483.73;;;18.30;46.76
62237;BME280;69163;48.778;2.308;2023-10-09T05:23:27;101489.62;;;18.20;46.93
62237;BME280;69163;48.778;2.308;2023-10-09T05:25:51;101494.81;;;17.87;47.03
62237;BME280;69163;48.778;2.308;2023-10-09T05:28:17;101500.81;;;17.89;47.01
62237;BME280;69163;48.778;2.308;2023-10-09T05:30:42;101503.12;;;17.86;47.11
62237;BME280;69163;48.778;2.308;2023-10-09T05:33:08;101503.03;;;17.94;46.92
62237;BME280;69163;48.778;2.308;2023-10-09T05:35:33;101499.58;;;18.21;46.87
62237;BME280;69163;48.778;2.308;2023-10-09T05:37:58;101497.94;;;17.93;46.86
62237;BME280;69163;48.778;2.308;2023-10-09T05:40:23;101494.37;;;17.89;46.91
62237;BME280;69163;48.778;2.308;2023-10-09T05:42:48;101487.90;;;17.85;46.90
62237;BME280;69163;48.778;2.308;2023-10-09T05:45:14;101490.20;;;17.93;46.73
62237;BME280;69163;48.778;2.308;2023-10-09T05:47:39;101495.83;;;17.85;46.83
62237;BME280;69163;48.778;2.308;2023-10-09T05:50:05;101499.71;;;17.84;46.89
62237;BME280;69163;48.778;2.308;2023-10-09T05:52:30;101505.04;;;18.16;46.74
62237;BME280;69163;48.778;2.308;2023-10-09T05:54:54;101508.75;;;17.91;46.65
62237;BME280;69163;48.778;2.308;2023-10-09T05:57:20;101510.88;;;17.85;46.80
62237;BME280;69163;48.778;2.308;2023-10-09T05:59:45;101516.09;;;18.09;46.77
62237;BME280;69163;48.778;2.308;2023-10-09T06:02:10;101512.88;;;18.08;46.70
62237;BME280;69163;48.778;2.308;2023-10-09T06:04:36;101507.86;;;17.76;46.77
62237;BME280;69163;48.778;2.308;2023-10-09T06:07:01;101509.16;;;17.82;46.73
62237;BME280;69163;48.778;2.308;2023-10-09T06:09:26;101514.55;;;18.23;46.78
62237;BME280;69163;48.778;2.308;2023-10-09T06:11:51;101518.87;;;17.41;46.96
62237;BME280;69163;48.778;2.308;2023-10-09T06:14:18;101518.58;;;17.90;46.94
62237;BME280;69163;48.778;2.308;2023-10-09T06:16:43;101519.23;;;17.68;46.92
62237;BME280;69163;48.778;2.308;2023-10-09T06:19:07;101515.29;;;18.00;46.77
62237;BME280;69163;48.778;2.308;2023-10-09T06:21:32;101515.74;;;17.99;46.70
62237;BME280;69163;48.778;2.308;2023-10-09T06:23:57;101515.96;;;17.72;46.73
62237;BME280;69163;48.778;2.308;2023-10-09T06:26:22;101518.67;;;17.70;46.72
62237;BME280;69163;48.778;2.308;2023-10-09T06:28:47;101521.14;;;17.68;46.74
62237;BME280;69163;48.778;2.308;2023-10-09T06:31:14;101524.47;;;17.63;46.76
62237;BME280;69163;48.778;2.308;2023-10-09T06:33:38;101527.00;;;17.67;46.77
62237;BME280;69163;48.778;2.308;2023-10-09T06:36:05;101527.48;;;17.92;46.74
62237;BME280;69163;48.778;2.308;2023-10-09T06:38:28;101525.53;;;17.95;46.66
62237;BME280;69163;48.778;2.308;2023-10-09T06:40:54;101526.79;;;17.95;46.64
62237;BME280;69163;48.778;2.308;2023-10-09T06:43:20;101527.05;;;18.05;46.46
62237;BME280;69163;48.778;2.308;2023-10-09T06:45:44;101533.19;;;17.38;46.70
62237;BME280;69163;48.778;2.308;2023-10-09T06:48:09;101532.54;;;17.76;46.84
62237;BME280;69163;48.778;2.308;2023-10-09T06:50:35;101536.15;;;17.55;46.78
62237;BME280;69163;48.778;2.308;2023-10-09T06:52:59;101539.83;;;17.66;46.99
62237;BME280;69163;48.778;2.308;2023-10-09T06:55:24;101540.12;;;17.56;46.77
62237;BME280;69163;48.778;2.308;2023-10-09T06:57:50;101540.35;;;17.81;46.76
62237;BME280;69163;48.778;2.308;2023-10-09T07:00:16;101542.07;;;17.66;46.61
62237;BME280;69163;48.778;2.308;2023-10-09T07:02:40;101542.44;;;17.67;46.56
62237;BME280;69163;48.778;2.308;2023-10-09T07:05:05;101541.71;;;17.68;46.48
62237;BME280;69163;48.778;2.308;2023-10-09T07:07:31;101541.28;;;17.59;46.61
62237;BME280;69163;48.778;2.308;2023-10-09T07:09:56;101542.60;;;17.43;46.81
62237;BME280;69163;48.778;2.308;2023-10-09T07:12:21;101544.25;;;17.38;46.92
62237;BME280;69163;48.778;2.308;2023-10-09T07:14:46;101542.85;;;17.37;46.96
62237;BME280;69163;48.778;2.308;2023-10-09T07:17:12;101545.69;;;17.37;46.92
62237;BME280;69163;48.778;2.308;2023-10-09T07:19:38;101542.97;;;17.51;46.74
62237;BME280;69163;48.778;2.308;2023-10-09T07:22:03;101542.71;;;18.02;46.68
62237;BME280;69163;48.778;2.308;2023-10-09T07:24:29;101544.84;;;17.63;46.51
62237;BME280;69163;48.778;2.308;2023-10-09T07:26:53;101547.86;;;17.66;46.42
62237;BME280;69163;48.778;2.308;2023-10-09T07:29:18;101548.99;;;17.87;46.46
62237;BME280;69163;48.778;2.308;2023-10-09T07:31:43;101550.26;;;17.86;46.44
62237;BME280;69163;48.778;2.308;2023-10-09T07:34:08;101551.18;;;17.73;46.59
62237;BME280;69163;48.778;2.308;2023-10-09T07:36:34;101555.04;;;17.43;46.68
62237;BME280;69163;48.778;2.308;2023-10-09T07:38:59;101559.87;;;17.46;46.66
62237;BME280;69163;48.778;2.308;2023-10-09T07:41:24;101558.39;;;17.82;46.51
62237;BME280;69163;48.778;2.308;2023-10-09T07:43:49;101557.08;;;17.74;46.56
62237;BME280;69163;48.778;2.308;2023-10-09T07:46:15;101558.53;;;17.26;47.25
62237;BME280;69163;48.778;2.308;2023-10-09T07:48:40;101559.45;;;17.43;48.67
62237;BME280;69163;48.778;2.308;2023-10-09T07:51:11;101563.44;;;17.33;49.13
62237;BME280;69163;48.778;2.308;2023-10-09T07:53:31;101566.14;;;17.67;49.62
62237;BME280;69163;48.778;2.308;2023-10-09T07:55:57;101567.03;;;17.47;49.90
62237;BME280;69163;48.778;2.308;2023-10-09T07:58:21;101568.82;;;17.97;50.01
62237;BME280;69163;48.778;2.308;2023-10-09T08:00:45;101572.51;;;17.48;50.07
62237;BME280;69163;48.778;2.308;2023-10-09T08:03:11;101572.94;;;17.64;50.43
62237;BME280;69163;48.778;2.308;2023-10-09T08:05:37;101578.86;;;17.41;50.57
62237;BME280;69163;48.778;2.308;2023-10-09T08:08:03;101579.60;;;17.67;50.56
62237;BME280;69163;48.778;2.308;2023-10-09T08:10:27;101579.78;;;17.68;50.56
62237;BME280;69163;48.778;2.308;2023-10-09T08:12:53;101581.73;;;17.76;50.52
62237;BME280;69163;48.778;2.308;2023-10-09T08:15:18;101586.03;;;17.80;50.47
62237;BME280;69163;48.778;2.308;2023-10-09T08:17:45;101584.65;;;17.83;50.44
62237;BME280;69163;48.778;2.308;2023-10-09T08:20:09;101584.62;;;18.02;50.35
62237;BME280;69163;48.778;2.308;2023-10-09T08:22:34;101586.03;;;17.59;50.18
62237;BME280;69163;48.778;2.308;2023-10-09T08:25:00;101585.29;;;17.70;50.83
62237;BME280;69163;48.778;2.308;2023-10-09T08:27:25;101581.08;;;17.92;52.64
62237;BME280;69163;48.778;2.308;2023-10-09T08:29:51;101580.47;;;17.89;52.77
62237;BME280;69163;48.778;2.308;2023-10-09T08:32:16;101577.66;;;18.12;53.14
62237;BME280;69163;48.778;2.308;2023-10-09T08:34:42;101581.75;;;17.67;53.51
62237;BME280;69163;48.778;2.308;2023-10-09T08:37:08;101583.06;;;18.15;53.78
62237;BME280;69163;48.778;2.308;2023-10-09T08:39:33;101584.63;;;17.56;53.88
62237;BME280;69163;48.778;2.308;2023-10-09T08:41:57;101587.78;;;17.57;54.07
62237;BME280;69163;48.778;2.308;2023-10-09T08:44:24;101590.61;;;17.43;54.01
62237;BME280;69163;48.778;2.308;2023-10-09T08:46:49;101592.73;;;17.43;54.31
62237;BME280;69163;48.778;2.308;2023-10-09T08:49:14;101595.65;;;17.70;54.24
62237;BME280;69163;48.778;2.308;2023-10-09T08:51:39;101599.18;;;17.34;54.45
62237;BME280;69163;48.778;2.308;2023-10-09T08:54:07;101600.52;;;17.67;54.24
62237;BME280;69163;48.778;2.308;2023-10-09T08:56:29;101601.77;;;17.62;54.29
62237;BME280;69163;48.778;2.308;2023-10-09T08:58:57;101606.19;;;17.41;54.17
62237;BME280;69163;48.778;2.308;2023-10-09T09:01:22;101602.82;;;17.62;54.18
62237;BME280;69163;48.778;2.308;2023-10-09T09:03:45;101606.04;;;17.64;54.14
62237;BME280;69163;48.778;2.308;2023-10-09T09:06:11;101607.84;;;17.44;53.95
62237;BME280;69163;48.778;2.308;2023-10-09T09:08:37;101606.03;;;17.20;54.39
62237;BME280;69163;48.778;2.308;2023-10-09T09:11:03;101607.17;;;17.57;54.02
62237;BME280;69163;48.778;2.308;2023-10-09T09:13:27;101608.75;;;17.90;53.93
62237;BME280;69163;48.778;2.308;2023-10-09T09:15:52;101607.17;;;17.42;53.81
62237;BME280;69163;48.778;2.308;2023-10-09T09:18:17;101609.65;;;17.64;53.82
62237;BME280;69163;48.778;2.308;2023-10-09T09:20:43;101606.87;;;17.44;53.73
62237;BME280;69163;48.778;2.308;2023-10-09T09:23:10;101605.23;;;17.70;53.65
62237;BME280;69163;48.778;2.308;2023-10-09T09:25:41;101608.27;;;17.45;53.62
62237;BME280;69163;48.778;2.308;2023-10-09T09:27:59;101607.16;;;17.56;53.78
62237;BME280;69163;48.778;2.308;2023-10-09T09:30:25;101607.55;;;17.39;53.64
62237;BME280;69163;48.778;2.308;2023-10-09T09:32:49;101606.36;;;17.70;53.52
62237;BME280;69163;48.778;2.308;2023-10-09T09:35:14;101609.04;;;17.66;53.53
62237;BME280;69163;48.778;2.308;2023-10-09T09:37:40;101607.17;;;17.38;53.57
62237;BME280;69163;48.778;2.308;2023-10-09T09:40:06;101607.63;;;17.35;53.62
62237;BME280;69163;48.778;2.308;2023-10-09T09:42:32;101606.85;;;17.64;53.48
62237;BME280;69163;48.778;2.308;2023-10-09T09:44:56;101605.63;;;17.64;53.49
62237;BME280;69163;48.778;2.308;2023-10-09T09:47:20;101602.47;;;17.54;53.08
62237;BME280;69163;48.778;2.308;2023-10-09T09:49:46;101601.48;;;17.53;53.21
62237;BME280;69163;48.778;2.308;2023-10-09T09:52:11;101600.51;;;17.78;53.14
62237;BME280;69163;48.778;2.308;2023-10-09T09:54:37;101598.46;;;17.43;53.22
62237;BME280;69163;48.778;2.308;2023-10-09T09:57:03;101598.17;;;17.93;53.26
62237;BME280;69163;48.778;2.308;2023-10-09T09:59:30;101594.26;;;17.65;53.28
62237;BME280;69163;48.778;2.308;2023-10-09T10:01:55;101595.81;;;17.42;53.24
62237;BME280;69163;48.778;2.308;2023-10-09T10:04:19;101593.66;;;17.91;53.18
62237;BME280;69163;48.778;2.308;2023-10-09T10:06:44;101594.08;;;17.39;53.27
62237;BME280;69163;48.778;2.308;2023-10-09T10:09:09;101597.35;;;17.58;53.26
62237;BME280;69163;48.778;2.308;2023-10-09T10:11:44;101598.41;;;17.64;53.16
62237;BME280;69163;48.778;2.308;2023-10-09T10:13:59;101595.71;;;17.38;53.21
62237;BME280;69163;48.778;2.308;2023-10-09T10:16:24;101594.78;;;17.41;53.14
62237;BME280;69163;48.778;2.308;2023-10-09T10:18:55;101590.82;;;17.86;53.12
62237;BME280;69163;48.778;2.308;2023-10-09T10:21:15;101589.03;;;17.54;53.18
62237;BME280;69163;48.778;2.308;2023-10-09T10:23:40;101588.43;;;17.21;53.38
62237;BME280;69163;48.778;2.308;2023-10-09T10:28:31;101588.18;;;17.49;53.20
62237;BME280;69163;48.778;2.308;2023-10-09T10:30:56;101586.19;;;17.43;52.92
62237;BME280;69163;48.778;2.308;2023-10-09T10:33:21;101587.98;;;17.39;52.87
62237;BME280;69163;48.778;2.308;2023-10-09T10:35:45;101583.34;;;17.62;52.93
62237;BME280;69163;48.778;2.308;2023-10-09T10:38:24;101585.32;;;17.55;53.04
62237;BME280;69163;48.778;2.308;2023-10-09T10:40:38;101588.64;;;17.27;53.06
62237;BME280;69163;48.778;2.308;2023-10-09T10:43:01;101591.64;;;17.60;52.96
62237;BME280;69163;48.778;2.308;2023-10-09T10:45:27;101593.85;;;17.61;52.89
62237;BME280;69163;48.778;2.308;2023-10-09T10:47:54;101591.96;;;17.61;52.83
62237;BME280;69163;48.778;2.308;2023-10-09T10:50:18;101591.55;;;17.11;52.89
62237;BME280;69163;48.778;2.308;2023-10-09T10:52:42;101588.62;;;17.58;52.90
62237;BME280;69163;48.778;2.308;2023-10-09T10:55:10;101587.33;;;17.81;52.82
62237;BME280;69163;48.778;2.308;2023-10-09T10:57:36;101581.99;;;17.58;52.83
62237;BME280;69163;48.778;2.308;2023-10-09T10:59:58;101581.92;;;17.80;52.92
62237;BME280;69163;48.778;2.308;2023-10-09T11:02:23;101581.23;;;17.62;52.77
62237;BME280;69163;48.778;2.308;2023-10-09T11:04:48;101578.44;;;17.49;52.95
62237;BME280;69163;48.778;2.308;2023-10-09T11:07:13;101574.88;;;17.82;52.89
62237;BME280;69163;48.778;2.308;2023-10-09T11:09:44;101570.00;;;17.26;53.03
62237;BME280;69163;48.778;2.308;2023-10-09T11:12:05;101568.15;;;17.61;52.74
62237;BME280;69163;48.778;2.308;2023-10-09T11:14:29;101570.43;;;17.80;52.87
62237;BME280;69163;48.778;2.308;2023-10-09T11:16:54;101570.39;;;17.33;52.86
62237;BME280;69163;48.778;2.308;2023-10-09T11:19:21;101568.58;;;17.50;52.93
62237;BME280;69163;48.778;2.308;2023-10-09T11:21:45;101567.43;;;17.60;52.77
62237;BME280;69163;48.778;2.308;2023-10-09T11:24:10;101570.01;;;17.58;52.79
62237;BME280;69163;48.778;2.308;2023-10-09T11:26:36;101568.14;;;17.86;52.78
62237;BME280;69163;48.778;2.308;2023-10-09T11:29:08;101566.35;;;17.37;52.74
62237;BME280;69163;48.778;2.308;2023-10-09T11:31:26;101565.70;;;17.58;52.64
62237;BME280;69163;48.778;2.308;2023-10-09T11:33:52;101565.00;;;17.77;52.82
62237;BME280;69163;48.778;2.308;2023-10-09T11:36:16;101568.41;;;17.55;52.86
62237;BME280;69163;48.778;2.308;2023-10-09T11:38:42;101565.89;;;17.42;52.57
62237;BME280;69163;48.778;2.308;2023-10-09T11:41:12;101563.87;;;17.56;52.70
62237;BME280;69163;48.778;2.308;2023-10-09T11:43:46;101563.49;;;17.58;52.74
62237;BME280;69163;48.778;2.308;2023-10-09T11:48:22;101558.93;;;17.43;52.60
62237;BME280;69163;48.778;2.308;2023-10-09T11:50:48;101556.79;;;17.44;52.59
62237;BME280;69163;48.778;2.308;2023-10-09T11:53:13;101554.78;;;17.37;52.62
62237;BME280;69163;48.778;2.308;2023-10-09T11:55:38;101551.31;;;17.50;52.85
62237;BME280;69163;48.778;2.308;2023-10-09T11:58:04;101549.48;;;17.78;52.82
62237;BME280;69163;48.778;2.308;2023-10-09T12:00:28;101547.74;;;17.80;52.74
62237;BME280;69163;48.778;2.308;2023-10-09T12:02:53;101547.05;;;17.25;52.88
62237;BME280;69163;48.778;2.308;2023-10-09T12:05:18;101544.19;;;17.57;52.75
62237;BME280;69163;48.778;2.308;2023-10-09T12:07:44;101541.58;;;17.57;52.71
62237;BME280;69163;48.778;2.308;2023-10-09T12:10:09;101539.13;;;17.83;52.76
62237;BME280;69163;48.778;2.308;2023-10-09T12:12:35;101534.31;;;17.32;52.75
62237;BME280;69163;48.778;2.308;2023-10-09T12:15:00;101528.24;;;17.38;52.69
62237;BME280;69163;48.778;2.308;2023-10-09T12:17:25;101525.59;;;17.36;52.70
62237;BME280;69163;48.778;2.308;2023-10-09T12:19:50;101523.79;;;17.75;52.87
62237;BME280;69163;48.778;2.308;2023-10-09T12:22:15;101527.60;;;17.66;52.61
62237;BME280;69163;48.778;2.308;2023-10-09T12:24:41;101524.33;;;17.45;52.48
62237;BME280;69163;48.778;2.308;2023-10-09T12:27:06;101522.74;;;17.43;52.45
62237;BME280;69163;48.778;2.308;2023-10-09T12:29:31;101516.37;;;17.35;52.70
62237;BME280;69163;48.778;2.308;2023-10-09T12:31:56;101510.54;;;17.41;52.59
62237;BME280;69163;48.778;2.308;2023-10-09T12:34:22;101505.82;;;17.92;52.51
62237;BME280;69163;48.778;2.308;2023-10-09T12:36:46;101502.15;;;17.44;52.54
62237;BME280;69163;48.778;2.308;2023-10-09T12:39:11;101500.39;;;17.42;52.54
62237;BME280;69163;48.778;2.308;2023-10-09T12:41:37;101502.16;;;17.70;52.50
62237;BME280;69163;48.778;2.308;2023-10-09T12:44:02;101499.93;;;17.63;52.57